Argenta, Illinois
Current Conditions -  °F | °C
As of 8:54 AM on Friday 31 Oct 2014 (Local Time) from KDEC Reporting Station
Broken Clouds Broken Clouds  
Wind Chill: -3°   Ceiling: 6000
Heat Index:   Visibility: 10mi
Dew Point: -5°   Wind: 22mph
Humidity: 57%   Direction: 330°NNW
Pressure: 30.19"   Gusts: 32mph
Location:  39.98°N, 88.82°W
Report Text: KDEC 311354Z 33019G28KT 10SM BKN060 03/M05 A3019 RMK AO2 PK WND 35034/1257 SLP227 T00281050
Loading
Personal Weather Stations






























Interactive Weather Map
Tropical Storm Tracking
New forecast layout! Learn more

10-Day Weather Forecast

Advertisements
Track Severe Weather on mobile